Time;durP1;ratioP1;P1;durP2;ratioP2;P2;SDS_P1;SDS_P2;PMS_P1;PMS_P2;Temp;Humidity;BMP_temperature;BMP_pressure;BME280_temperature;BME280_humidity;BME280_pressure;Samples;Min_cycle;Max_cycle;Signal;HPM_P1;HPM_P2
2023/01/05 00:02:08;;;;;;;6.70;4.73;;;;;;;7.83;91.31;98197.70;2214027;80;20932;-84
2023/01/05 00:05:08;;;;;;;6.00;4.80;;;;;;;7.78;91.81;98200.64;2234600;80;20979;-84
2023/01/05 00:08:09;;;;;;;5.33;4.80;;;;;;;7.75;92.54;98209.69;2225086;80;20935;-84
2023/01/05 00:24:24;;;;;;;7.90;5.17;;;;;;;7.71;93.44;98171.11;2224759;80;20985;-84
2023/01/05 00:27:24;;;;;;;6.97;5.20;;;;;;;7.70;93.21;98172.39;2224373;80;20989;-84
2023/01/05 00:30:25;;;;;;;6.80;5.47;;;;;;;7.68;93.33;98165.45;2224041;80;20986;-85
2023/01/05 00:33:25;;;;;;;7.50;5.33;;;;;;;7.70;93.24;98168.06;2224628;80;21340;-85
2023/01/05 00:36:28;;;;;;;8.13;5.67;;;;;;;7.70;93.73;98168.06;2224759;80;20939;-85
2023/01/05 00:39:29;;;;;;;6.97;6.07;;;;;;;7.67;93.83;98161.11;2224888;80;20955;-84
2023/01/05 00:42:29;;;;;;;7.10;5.67;;;;;;;7.62;94.81;98158.88;2224688;80;21027;-84
2023/01/05 00:45:29;;;;;;;9.60;6.50;;;;;;;7.62;95.12;98144.59;2224196;80;21031;-84
2023/01/05 00:48:30;;;;;;;7.80;5.23;;;;;;;7.62;95.34;98147.62;2224508;80;20959;-84
2023/01/05 00:51:30;;;;;;;8.70;5.90;;;;;;;7.59;95.40;98148.45;2223946;80;20982;-86
2023/01/05 00:54:31;;;;;;;7.33;5.57;;;;;;;7.59;95.47;98148.87;2223502;80;20951;-87
2023/01/05 00:57:31;;;;;;;7.87;5.83;;;;;;;7.58;96.02;98135.02;2224187;80;21043;-85
2023/01/05 01:00:34;;;;;;;7.17;5.70;;;;;;;7.58;95.50;98135.02;2224740;80;21311;-84
2023/01/05 01:03:34;;;;;;;8.33;5.53;;;;;;;7.60;95.10;98115.13;2224254;78;20963;-85
2023/01/05 01:06:37;;;;;;;6.97;5.60;;;;;;;7.60;95.10;98115.13;2224637;80;20967;-85
2023/01/05 01:09:39;;;;;;;7.97;5.77;;;;;;;7.62;94.52;98113.42;2224725;80;21362;-84
2023/01/05 01:12:38;;;;;;;5.77;5.17;;;;;;;7.61;94.65;98112.98;2224711;80;20927;-85
2023/01/05 01:15:39;;;;;;;8.13;5.70;;;;;;;7.61;94.66;98107.79;2224558;80;20962;-85
2023/01/05 01:18:41;;;;;;;7.47;5.90;;;;;;;7.61;94.43;98093.50;2224843;80;20951;-83
2023/01/05 01:21:42;;;;;;;6.73;5.67;;;;;;;7.65;94.09;98093.98;2224446;80;20927;-83
2023/01/05 01:24:42;;;;;;;6.83;5.27;;;;;;;7.66;94.13;98093.13;2224435;80;21330;-84
2023/01/05 01:27:43;;;;;;;7.03;5.40;;;;;;;7.70;94.10;98088.84;2224866;80;20959;-85
2023/01/05 01:30:43;;;;;;;6.43;4.97;;;;;;;7.75;93.86;98081.09;2224778;80;20947;-84
2023/01/05 01:33:43;;;;;;;5.43;4.33;;;;;;;7.80;93.60;98087.21;2224748;80;20966;-83
2023/01/05 01:36:46;;;;;;;6.33;4.63;;;;;;;7.85;93.12;98072.57;2224408;80;20978;-83
2023/01/05 01:39:46;;;;;;;6.47;4.73;;;;;;;7.89;92.99;98063.95;2224004;80;21318;-83
2023/01/05 01:42:47;;;;;;;6.47;4.67;;;;;;;7.89;92.88;98073.05;2224389;80;20938;-84
2023/01/05 01:45:47;;;;;;;5.40;4.40;;;;;;;7.92;92.59;98058.36;2224562;80;20994;-83
2023/01/05 01:48:48;;;;;;;4.97;4.10;;;;;;;7.96;92.49;98056.23;2224545;80;21413;-83
2023/01/05 01:51:48;;;;;;;5.03;4.03;;;;;;;7.97;92.48;98061.00;2224574;80;20974;-83
2023/01/05 01:54:48;;;;;;;6.17;4.57;;;;;;;7.98;92.41;98055.81;2224455;80;20969;-83
2023/01/05 01:57:49;;;;;;;6.17;4.30;;;;;;;8.03;92.99;98074.05;2224672;80;20970;-84
2023/01/05 02:00:52;;;;;;;5.20;3.57;;;;;;;8.02;93.79;98061.05;2225243;80;21237;-83
2023/01/05 02:03:52;;;;;;;4.00;3.60;;;;;;;7.97;94.51;98044.98;2229776;78;21034;-84
2023/01/05 02:06:53;;;;;;;6.67;3.93;;;;;;;7.94;95.68;98053.17;2235892;80;21282;-84
2023/01/05 02:09:53;;;;;;;5.50;4.03;;;;;;;7.92;96.02;98047.09;2232422;80;20993;-84
2023/01/05 02:12:53;;;;;;;6.00;4.60;;;;;;;7.88;97.19;98032.33;2228411;80;20977;-85
2023/01/05 02:15:54;;;;;;;5.67;4.67;;;;;;;7.82;97.52;98040.94;2229340;80;20986;-84
2023/01/05 02:18:56;;;;;;;5.53;4.73;;;;;;;7.76;98.15;98040.84;2229293;80;20943;-84
2023/01/05 02:21:57;;;;;;;5.77;4.70;;;;;;;7.73;99.04;98034.74;2228736;80;20955;-85
2023/01/05 02:24:57;;;;;;;6.23;5.07;;;;;;;7.69;99.87;98018.26;2228413;80;20989;-85
2023/01/05 02:27:58;;;;;;;7.50;5.20;;;;;;;7.64;99.87;98006.95;2229180;80;21002;-83
2023/01/05 02:30:58;;;;;;;6.03;4.73;;;;;;;7.60;100.00;98003.45;2229074;80;20962;-84
2023/01/05 02:33:59;;;;;;;6.47;5.50;;;;;;;7.57;100.00;98000.83;2228941;80;20934;-83
2023/01/05 02:36:59;;;;;;;5.53;4.93;;;;;;;7.53;100.00;98006.84;2228847;80;20979;-83
2023/01/05 02:39:59;;;;;;;5.30;4.37;;;;;;;7.51;100.00;97983.01;2228620;80;21332;-83
2023/01/05 02:44:36;;;;;;;6.20;5.40;;;;;;;7.55;100.00;97988.25;2239181;79;22916;-84
2023/01/05 02:47:37;;;;;;;6.80;4.97;;;;;;;7.50;100.00;97987.33;2190192;81;20984;-84
2023/01/05 02:50:37;;;;;;;8.37;5.53;;;;;;;7.52;100.00;97976.96;2190197;81;20968;-82
2023/01/05 02:53:37;;;;;;;13.47;7.90;;;;;;;7.50;100.00;97963.96;2190179;81;21000;-82
2023/01/05 02:56:38;;;;;;;6.43;5.50;;;;;;;7.52;100.00;97973.94;2190180;81;20976;-83
2023/01/05 02:59:38;;;;;;;5.40;4.90;;;;;;;7.53;100.00;97959.23;2190267;81;20984;-83
2023/01/05 03:02:38;;;;;;;7.67;6.13;;;;;;;7.52;100.00;97947.97;2190167;81;21039;-84
2023/01/05 03:05:39;;;;;;;9.20;5.57;;;;;;;7.53;100.00;97956.20;2189900;81;20976;-83
2023/01/05 03:08:39;;;;;;;6.07;5.13;;;;;;;7.55;100.00;97947.12;2190488;81;21478;-84
2023/01/05 03:14:58;;;;;;;6.57;5.13;;;;;;;7.57;100.00;97945.41;2190454;81;20968;-82
2023/01/05 03:17:59;;;;;;;6.07;5.37;;;;;;;7.59;100.00;97943.27;2190081;81;20980;-85
2023/01/05 03:20:59;;;;;;;7.60;5.83;;;;;;;7.64;100.00;97931.20;2190499;81;20972;-83
2023/01/05 03:37:14;;;;;;;9.60;4.17;;;;;;;7.77;100.00;97923.51;2190063;81;20960;-85
2023/01/05 03:40:21;;;;;;;4.83;4.27;;;;;;;7.78;100.00;97929.15;2190252;81;21387;-84
2023/01/05 03:43:21;;;;;;;5.97;4.33;;;;;;;7.78;100.00;97927.84;2180927;81;21016;-86
2023/01/05 03:46:24;;;;;;;9.43;4.53;;;;;;;7.80;100.00;97920.94;2173893;81;20956;-85
2023/01/05 03:49:25;;;;;;;4.77;4.37;;;;;;;7.82;100.00;97922.72;2173421;81;20972;-85
2023/01/05 03:52:27;;;;;;;5.53;4.10;;;;;;;7.82;100.00;97922.72;2173896;81;20972;-83
2023/01/05 03:55:28;;;;;;;5.67;4.40;;;;;;;7.84;100.00;97932.70;2173113;81;20921;-81
2023/01/05 03:58:28;;;;;;;5.27;3.90;;;;;;;7.85;100.00;97926.64;2172977;82;21013;-81
2023/01/05 04:01:28;;;;;;;4.33;3.93;;;;;;;7.86;100.00;97929.69;2172522;81;21368;-82
2023/01/05 04:04:29;;;;;;;8.10;3.43;;;;;;;7.89;100.00;97923.64;2173155;81;21052;-83
2023/01/05 04:07:32;;;;;;;6.80;3.50;;;;;;;7.89;100.00;97927.53;2173381;81;20957;-83
2023/01/05 04:10:32;;;;;;;16.30;4.20;;;;;;;7.91;100.00;97928.42;2173390;82;20968;-79
2023/01/05 04:13:35;;;;;;;5.60;3.27;;;;;;;7.91;100.00;97919.32;2173179;81;21012;-83
2023/01/05 04:16:35;;;;;;;12.60;3.77;;;;;;;7.91;100.00;97907.63;2173061;82;20965;-81
2023/01/05 04:19:36;;;;;;;8.53;3.20;;;;;;;7.96;100.00;97922.83;2173057;81;21432;-81
2023/01/05 04:22:36;;;;;;;3.77;3.00;;;;;;;7.99;100.00;97913.33;2173416;81;21038;-82
2023/01/05 04:25:36;;;;;;;9.03;2.60;;;;;;;8.03;100.00;97928.51;2173372;81;21048;-81
2023/01/05 04:28:37;;;;;;;8.00;3.53;;;;;;;8.08;100.00;97930.71;2172945;81;20948;-82
2023/01/05 04:31:37;;;;;;;6.80;2.90;;;;;;;8.27;100.00;97923.91;2173942;81;20936;-83
2023/01/05 04:34:40;;;;;;;4.20;2.47;;;;;;;8.34;100.00;97931.34;2173680;81;21048;-82
2023/01/05 04:37:41;;;;;;;3.07;2.53;;;;;;;8.27;100.00;97929.97;2173032;82;20960;-83
2023/01/05 04:40:41;;;;;;;4.33;2.40;;;;;;;8.23;100.00;97926.05;2173711;82;20952;-83
2023/01/05 04:43:41;;;;;;;3.80;2.17;;;;;;;8.19;100.00;97913.89;2181742;81;21144;-83
2023/01/05 04:46:42;;;;;;;9.30;2.33;;;;;;;8.16;100.00;97940.73;2190149;81;20984;-83
2023/01/05 04:49:42;;;;;;;4.13;2.30;;;;;;;8.14;100.00;97921.66;2189870;81;20947;-82
2023/01/05 04:52:43;;;;;;;4.90;1.90;;;;;;;8.12;99.88;97920.77;2190031;81;21447;-81
2023/01/05 04:55:43;;;;;;;7.27;1.70;;;;;;;8.11;98.41;97903.87;2189493;81;20983;-82
2023/01/05 04:58:43;;;;;;;3.27;1.40;;;;;;;8.10;97.81;97909.50;2189005;81;20963;-83
2023/01/05 05:01:44;;;;;;;2.20;1.73;;;;;;;8.07;96.63;97900.81;2188869;81;21016;-83
2023/01/05 05:04:44;;;;;;;3.77;1.47;;;;;;;8.01;97.01;97930.66;2188411;81;20944;-81
2023/01/05 05:07:45;;;;;;;3.77;1.67;;;;;;;7.94;96.53;97933.21;2188512;81;20940;-80
2023/01/05 05:10:45;;;;;;;3.67;1.70;;;;;;;7.93;96.13;97946.19;2188780;81;20961;-83
2023/01/05 05:13:45;;;;;;;2.83;1.50;;;;;;;7.88;96.43;97953.95;2188512;81;21015;-84
2023/01/05 05:16:46;;;;;;;3.30;2.07;;;;;;;7.86;95.67;97951.77;2188504;81;21682;-84
2023/01/05 05:19:46;;;;;;;5.80;2.30;;;;;;;7.85;96.08;97951.75;2188577;81;20933;-85
2023/01/05 05:22:47;;;;;;;5.10;2.50;;;;;;;7.84;95.73;97946.12;2188269;81;21043;-84
2023/01/05 05:25:47;;;;;;;3.83;2.07;;;;;;;7.85;95.81;97946.56;2188402;81;20971;-83
2023/01/05 05:28:47;;;;;;;5.30;1.70;;;;;;;7.85;95.67;97949.16;2189022;81;20940;-84
2023/01/05 05:31:48;;;;;;;4.00;1.67;;;;;;;7.85;95.01;97938.77;2188715;81;21730;-82
2023/01/05 05:34:48;;;;;;;3.67;2.00;;;;;;;7.87;94.65;97941.81;2187913;81;20905;-84
2023/01/05 05:37:49;;;;;;;2.23;1.33;;;;;;;7.88;94.82;97955.67;2188293;81;20975;-83
2023/01/05 05:40:49;;;;;;;3.80;1.47;;;;;;;7.85;95.03;97953.92;2188178;81;21055;-83
2023/01/05 05:43:49;;;;;;;4.90;1.33;;;;;;;7.85;95.50;97952.63;2187084;81;20984;-84
2023/01/05 05:46:50;;;;;;;5.07;2.63;;;;;;;7.83;95.70;97953.47;2187793;81;21683;-82
2023/01/05 05:49:50;;;;;;;4.80;3.07;;;;;;;7.76;96.65;97949.05;2187993;81;20995;-83
2023/01/05 05:52:51;;;;;;;4.80;3.03;;;;;;;7.76;96.65;97949.05;2188026;81;20964;-82
2023/01/05 05:55:51;;;;;;;3.03;1.83;;;;;;;7.72;97.02;97942.95;2187760;81;20967;-82
2023/01/05 05:58:51;;;;;;;6.50;1.80;;;;;;;7.68;97.76;97955.05;2187030;81;20983;-79
2023/01/05 06:01:52;;;;;;;7.23;2.80;;;;;;;7.64;97.99;97942.89;2186513;81;20932;-82
2023/01/05 06:04:52;;;;;;;9.93;2.37;;;;;;;7.59;98.29;97932.88;2187270;81;21745;-81
2023/01/05 06:07:53;;;;;;;2.10;1.60;;;;;;;7.57;98.98;97941.09;2187943;81;20936;-83
2023/01/05 06:10:53;;;;;;;5.67;2.63;;;;;;;7.54;99.13;97935.87;2188205;81;21333;-82
2023/01/05 06:13:53;;;;;;;8.17;2.20;;;;;;;7.51;99.22;97940.16;2187701;81;21027;-80
2023/01/05 06:16:54;;;;;;;8.33;1.70;;;;;;;7.50;99.12;97935.40;2188517;81;20936;-81
2023/01/05 06:19:54;;;;;;;11.30;2.80;;;;;;;7.50;98.99;97937.13;2187911;81;21860;-82
2023/01/05 06:22:54;;;;;;;6.07;1.90;;;;;;;7.48;99.78;97938.41;2186384;81;20972;-81
2023/01/05 06:25:55;;;;;;;7.47;1.73;;;;;;;7.46;99.04;97936.23;2186556;81;21474;-82
2023/01/05 06:28:55;;;;;;;6.37;2.10;;;;;;;7.46;99.37;97944.44;2186830;81;20936;-83
2023/01/05 06:31:56;;;;;;;6.00;1.87;;;;;;;7.43;99.41;97954.38;2186216;81;20976;-82
2023/01/05 06:34:56;;;;;;;8.23;1.93;;;;;;;7.44;99.63;97947.45;2186636;81;20929;-81
2023/01/05 06:37:56;;;;;;;5.60;1.87;;;;;;;7.44;99.89;97952.64;2187699;81;20988;-81
2023/01/05 06:40:58;;;;;;;4.77;2.20;;;;;;;7.45;99.92;97953.09;2187483;81;21367;-81
2023/01/05 06:43:57;;;;;;;10.60;3.20;;;;;;;7.47;99.87;97949.66;2180560;81;21016;-81
2023/01/05 06:46:58;;;;;;;4.80;2.33;;;;;;;7.50;99.82;97958.77;2170481;82;21008;-83
2023/01/05 06:49:58;;;;;;;5.77;2.50;;;;;;;7.53;100.00;97960.09;2170511;81;20991;-81
2023/01/05 06:52:58;;;;;;;8.17;2.40;;;;;;;7.57;99.59;97955.38;2170854;81;21368;-81
2023/01/05 06:55:59;;;;;;;9.60;2.47;;;;;;;7.60;99.51;97969.69;2170469;81;21000;-82
2023/01/05 06:58:59;;;;;;;5.00;2.00;;;;;;;7.63;99.27;97967.13;2170378;81;20941;-81
2023/01/05 07:02:00;;;;;;;4.53;2.67;;;;;;;7.67;98.89;97961.52;2170631;81;21015;-81
2023/01/05 07:05:00;;;;;;;6.70;2.57;;;;;;;7.70;98.82;97961.55;2171708;82;20972;-81
2023/01/05 07:08:00;;;;;;;4.40;2.30;;;;;;;7.72;98.53;97969.36;2171271;81;21273;-82
2023/01/05 07:11:01;;;;;;;6.87;2.07;;;;;;;7.72;98.25;97969.36;2171008;81;21277;-79
2023/01/05 07:14:01;;;;;;;4.03;2.27;;;;;;;7.72;98.22;97982.34;2171459;82;21544;-81
2023/01/05 07:17:02;;;;;;;14.87;3.00;;;;;;;7.70;98.20;97986.23;2170821;81;20984;-81
2023/01/05 07:20:02;;;;;;;9.83;6.30;;;;;;;7.71;98.39;97994.89;2170342;81;21361;-80
2023/01/05 07:23:02;;;;;;;7.47;4.53;;;;;;;7.71;98.55;97988.40;2170655;82;20992;-81
2023/01/05 07:26:03;;;;;;;5.63;3.70;;;;;;;7.71;98.90;97983.20;2170970;81;21340;-79
2023/01/05 07:29:03;;;;;;;4.40;2.70;;;;;;;7.68;98.87;97990.11;2170694;81;21369;-82
2023/01/05 07:32:04;;;;;;;5.73;2.00;;;;;;;7.68;99.12;97983.62;2171053;81;20901;-81
2023/01/05 07:35:04;;;;;;;7.00;2.30;;;;;;;7.67;99.43;97984.90;2171284;81;21317;-82
2023/01/05 07:38:04;;;;;;;6.90;2.67;;;;;;;7.66;99.45;97984.46;2171602;81;20945;-83
2023/01/05 07:41:05;;;;;;;5.93;2.70;;;;;;;7.62;99.97;97982.26;2171048;81;20960;-83
2023/01/05 07:44:05;;;;;;;7.90;3.37;;;;;;;7.59;100.00;97986.13;2176396;81;21079;-84
2023/01/05 07:47:05;;;;;;;4.33;2.20;;;;;;;7.60;100.00;97982.67;2186815;81;20932;-82
2023/01/05 07:50:06;;;;;;;5.80;2.23;;;;;;;7.63;100.00;97982.70;2185693;81;20968;-80
2023/01/05 07:53:06;;;;;;;7.67;2.40;;;;;;;7.68;99.86;97984.05;2186186;81;21340;-80
2023/01/05 07:56:07;;;;;;;8.83;2.83;;;;;;;7.73;99.81;97991.45;2187030;81;20980;-82
2023/01/05 07:59:07;;;;;;;4.10;2.10;;;;;;;7.78;99.50;97989.77;2186680;81;20944;-82
2023/01/05 08:02:08;;;;;;;7.57;2.10;;;;;;;7.81;99.32;97983.34;2188130;81;20961;-81
2023/01/05 08:05:08;;;;;;;4.63;2.63;;;;;;;7.84;99.08;97978.59;2187326;81;20972;-82
2023/01/05 08:08:11;;;;;;;6.20;2.80;;;;;;;7.87;98.91;97972.13;2187972;81;20939;-83
2023/01/05 08:11:14;;;;;;;4.50;2.63;;;;;;;7.88;98.72;97982.96;2187460;81;21653;-82
2023/01/05 08:14:12;;;;;;;9.77;3.43;;;;;;;7.91;98.59;97979.09;2187783;81;20991;-83
2023/01/05 08:17:12;;;;;;;7.90;2.90;;;;;;;7.94;98.46;97985.19;2187875;81;20936;-83
2023/01/05 08:20:13;;;;;;;9.47;3.37;;;;;;;7.98;98.08;97979.16;2187635;81;20964;-82
2023/01/05 08:23:13;;;;;;;7.67;3.70;;;;;;;7.99;97.94;97984.80;2187679;81;21027;-81
2023/01/05 08:26:14;;;;;;;11.50;3.30;;;;;;;8.05;97.82;97981.80;2187488;81;20971;-82
2023/01/05 08:29:14;;;;;;;5.50;3.20;;;;;;;8.09;97.70;97984.86;2187656;81;20959;-82
2023/01/05 08:32:14;;;;;;;5.67;3.30;;;;;;;8.09;97.44;97989.63;2188002;81;21000;-82
2023/01/05 08:35:15;;;;;;;4.97;2.87;;;;;;;8.09;97.08;97992.66;2188017;81;21342;-83
2023/01/05 08:38:15;;;;;;;6.70;3.27;;;;;;;8.09;97.03;97991.36;2187300;81;21331;-82
2023/01/05 08:41:15;;;;;;;12.20;5.37;;;;;;;8.11;96.69;97985.31;2187877;81;20964;-82
2023/01/05 08:44:16;;;;;;;11.20;3.67;;;;;;;8.18;96.66;97991.44;2187669;81;21052;-82
2023/01/05 08:47:16;;;;;;;8.13;3.70;;;;;;;8.23;95.72;97990.61;2186519;81;20955;-83
2023/01/05 08:50:17;;;;;;;5.53;3.07;;;;;;;8.36;95.25;98001.13;2187352;81;20976;-80
2023/01/05 08:53:17;;;;;;;8.27;3.80;;;;;;;8.50;94.79;97989.09;2188209;81;20952;-83
2023/01/05 08:56:17;;;;;;;10.23;6.67;;;;;;;8.56;94.10;97990.42;2187359;81;20944;-83
2023/01/05 08:59:18;;;;;;;9.23;4.73;;;;;;;8.56;93.50;97996.93;2186926;81;21455;-81
2023/01/05 09:02:18;;;;;;;7.63;4.13;;;;;;;8.56;93.13;97986.53;2187319;81;20925;-80
2023/01/05 09:05:19;;;;;;;9.13;3.43;;;;;;;8.65;93.49;97990.48;2187314;81;20947;-81
2023/01/05 09:08:19;;;;;;;9.43;3.30;;;;;;;8.81;92.29;97996.67;2187564;81;21629;-80
2023/01/05 09:11:20;;;;;;;6.70;2.83;;;;;;;8.81;92.52;97983.23;2188407;81;20956;-82
2023/01/05 09:14:20;;;;;;;6.43;3.40;;;;;;;8.79;91.37;98004.47;2187758;81;21044;-82
2023/01/05 09:17:20;;;;;;;6.30;3.70;;;;;;;8.77;91.01;98017.91;2187974;81;21316;-83
2023/01/05 09:20:21;;;;;;;9.07;4.33;;;;;;;8.77;91.84;98008.80;2187856;81;20981;-82
2023/01/05 09:23:21;;;;;;;9.50;3.30;;;;;;;8.71;92.35;97999.66;2187738;81;21431;-82
2023/01/05 09:26:22;;;;;;;5.87;3.53;;;;;;;8.72;92.68;97996.19;2186801;81;20916;-82
2023/01/05 09:29:22;;;;;;;7.80;3.20;;;;;;;8.70;92.88;98017.43;2187587;81;21337;-82
2023/01/05 09:32:25;;;;;;;12.60;4.17;;;;;;;8.65;93.98;98034.71;2126107;83;21335;-83
2023/01/05 09:35:26;;;;;;;5.47;2.97;;;;;;;8.59;95.67;98013.86;2143091;83;21035;-82
2023/01/05 09:38:26;;;;;;;7.73;4.13;;;;;;;8.54;95.58;98002.13;2141981;83;20951;-82
2023/01/05 09:41:27;;;;;;;5.63;4.03;;;;;;;8.73;95.18;97999.23;2142034;83;21070;-83
2023/01/05 09:44:28;;;;;;;9.30;3.70;;;;;;;8.91;94.11;98007.14;2139812;83;21007;-82
2023/01/05 09:47:27;;;;;;;8.20;4.50;;;;;;;8.96;92.95;98014.09;2135181;83;20977;-81
2023/01/05 09:50:31;;;;;;;6.07;3.10;;;;;;;8.83;94.35;98011.44;2135855;83;20943;-83
2023/01/05 09:53:29;;;;;;;4.77;3.00;;;;;;;8.75;95.09;98013.13;2136110;83;20912;-81
2023/01/05 09:56:29;;;;;;;7.30;3.47;;;;;;;8.65;95.81;98016.50;2135640;83;21327;-81
2023/01/05 09:59:29;;;;;;;5.43;3.33;;;;;;;8.49;96.80;98006.86;2134860;83;20928;-82
2023/01/05 10:02:29;;;;;;;7.53;3.60;;;;;;;8.28;95.67;98037.02;2135108;83;20927;-81
2023/01/05 10:05:30;;;;;;;7.40;3.27;;;;;;;8.20;96.50;98020.91;2135809;83;20955;-79
2023/01/05 10:08:30;;;;;;;6.10;3.07;;;;;;;8.10;97.25;97999.17;2135161;83;21459;-84
2023/01/05 10:14:49;;;;;;;6.27;2.97;;;;;;;7.96;97.09;98015.08;2135963;83;20982;-83
2023/01/05 10:17:50;;;;;;;8.13;3.60;;;;;;;7.89;98.15;97992.50;2136157;83;20923;-81
2023/01/05 10:20:50;;;;;;;9.63;4.53;;;;;;;7.84;98.53;97995.05;2136508;83;20987;-82
2023/01/05 10:23:51;;;;;;;10.10;4.80;;;;;;;7.81;98.80;97995.45;2135904;83;21599;-82
2023/01/05 10:26:51;;;;;;;9.37;5.07;;;;;;;7.81;99.77;97994.16;2135043;83;20932;-84
2023/01/05 10:29:51;;;;;;;8.17;4.47;;;;;;;7.97;100.00;98003.40;2135479;83;21291;-82
2023/01/05 10:32:52;;;;;;;8.53;4.67;;;;;;;8.10;100.00;97996.57;2136105;83;20912;-82
2023/01/05 10:35:52;;;;;;;11.37;5.77;;;;;;;8.21;100.00;97996.66;2136542;83;20984;-81
2023/01/05 10:38:53;;;;;;;10.27;5.27;;;;;;;8.27;100.00;97992.80;2135255;83;20989;-82
2023/01/05 10:41:53;;;;;;;9.27;4.40;;;;;;;8.31;99.92;97995.44;2135134;83;21036;-81
2023/01/05 10:44:53;;;;;;;9.20;5.00;;;;;;;8.33;99.22;97999.78;2131436;83;21003;-82
2023/01/05 10:47:54;;;;;;;6.83;4.63;;;;;;;8.29;99.32;98002.35;2125247;84;21384;-81
2023/01/05 10:50:54;;;;;;;9.53;4.57;;;;;;;8.24;99.62;97999.28;2125295;84;20956;-81
2023/01/05 10:53:56;;;;;;;7.30;4.33;;;;;;;8.24;99.13;98009.25;2103801;84;20948;-82
2023/01/05 10:57:00;;;;;;;5.67;3.13;;;;;;;8.24;98.93;98009.68;2125303;84;21022;-82
2023/01/05 11:00:00;;;;;;;11.73;6.57;;;;;;;8.18;99.20;98011.80;2125288;84;20959;-81
2023/01/05 11:03:02;;;;;;;6.77;4.20;;;;;;;8.25;98.86;98007.09;2125717;84;20992;-81
2023/01/05 11:06:01;;;;;;;8.83;4.20;;;;;;;8.26;98.16;98012.73;2125975;84;21851;-82
2023/01/05 11:09:01;;;;;;;4.60;3.23;;;;;;;8.31;98.45;98020.56;2125426;84;20948;-80
2023/01/05 11:12:02;;;;;;;6.30;3.50;;;;;;;8.33;97.79;98006.28;2125933;84;20975;-82
2023/01/05 11:15:02;;;;;;;5.10;3.20;;;;;;;8.24;98.32;98020.08;2125212;84;21028;-79
2023/01/05 11:18:03;;;;;;;6.00;3.93;;;;;;;8.23;98.15;98009.23;2125638;84;20924;-81
2023/01/05 11:21:03;;;;;;;5.97;3.50;;;;;;;8.25;97.29;98017.49;2126218;84;20991;-83
2023/01/05 11:24:03;;;;;;;7.07;3.83;;;;;;;8.21;95.88;98004.45;2126325;84;21588;-82
2023/01/05 11:27:04;;;;;;;6.60;3.73;;;;;;;8.17;96.14;97998.36;2126993;84;20973;-80
2023/01/05 11:30:04;;;;;;;12.33;4.63;;;;;;;8.15;96.38;97996.61;2127268;84;20893;-84
2023/01/05 11:33:05;;;;;;;8.10;4.20;;;;;;;8.12;96.97;97998.76;2126847;84;20936;-83
2023/01/05 11:36:05;;;;;;;4.90;3.73;;;;;;;8.07;95.99;97987.45;2126313;84;20972;-84
2023/01/05 11:39:05;;;;;;;7.93;3.93;;;;;;;8.00;94.09;97992.16;2127830;84;20987;-84
2023/01/05 11:42:06;;;;;;;3.80;2.80;;;;;;;7.99;94.84;97994.31;2126613;84;20932;-83
2023/01/05 11:45:06;;;;;;;6.07;3.70;;;;;;;7.89;92.92;98019.78;2126029;83;21404;-83
2023/01/05 11:48:07;;;;;;;3.30;2.33;;;;;;;7.79;93.28;98004.93;2125845;84;20960;-82
2023/01/05 11:51:07;;;;;;;3.87;2.70;;;;;;;7.67;92.05;98013.05;2126079;84;20992;-85
2023/01/05 11:54:07;;;;;;;3.87;2.50;;;;;;;7.62;93.18;98014.73;2126486;84;20974;-85
2023/01/05 11:57:08;;;;;;;4.93;2.70;;;;;;;7.64;92.98;98003.92;2125467;84;20984;-83
2023/01/05 12:00:08;;;;;;;7.33;5.10;;;;;;;7.81;93.19;98014.94;2126333;84;20940;-83
2023/01/05 12:03:09;;;;;;;3.87;3.17;;;;;;;7.95;93.30;98013.34;2126150;84;21043;-83
2023/01/05 12:06:09;;;;;;;5.87;2.00;;;;;;;8.05;92.64;98024.26;2126345;84;21023;-84
2023/01/05 12:09:09;;;;;;;4.33;2.87;;;;;;;8.07;91.96;98016.47;2126398;84;20944;-84
2023/01/05 12:12:10;;;;;;;5.23;3.10;;;;;;;8.03;91.59;98023.38;2127138;84;21442;-86
2023/01/05 12:15:10;;;;;;;7.57;5.20;;;;;;;7.93;92.39;98028.92;2126276;84;20952;-84
2023/01/05 12:18:11;;;;;;;2.67;2.40;;;;;;;7.93;92.84;98022.42;2126866;84;21040;-84
2023/01/05 12:21:11;;;;;;;5.40;3.73;;;;;;;7.99;92.66;98026.37;2126628;84;21012;-85
2023/01/05 12:24:11;;;;;;;4.40;3.10;;;;;;;8.02;92.91;98012.96;2126450;84;21007;-86
2023/01/05 12:27:12;;;;;;;9.93;4.63;;;;;;;8.00;92.87;98015.55;2126654;84;21023;-84
2023/01/05 12:30:12;;;;;;;8.17;4.77;;;;;;;7.97;93.14;98024.19;2126389;84;21350;-86
2023/01/05 12:33:13;;;;;;;10.37;5.60;;;;;;;7.92;93.45;98023.70;2126061;84;20944;-83
2023/01/05 12:36:13;;;;;;;10.27;5.87;;;;;;;7.87;93.89;98031.88;2126416;84;21029;-85
2023/01/05 12:39:13;;;;;;;7.70;4.97;;;;;;;7.84;94.96;98031.86;2126576;84;20928;-85
2023/01/05 12:42:14;;;;;;;7.00;4.73;;;;;;;7.82;94.00;98029.67;2125955;84;20960;-83
2023/01/05 12:45:14;;;;;;;9.63;5.73;;;;;;;7.82;94.41;98024.47;2128458;83;21006;-85
2023/01/05 12:48:15;;;;;;;7.57;5.13;;;;;;;7.82;94.29;98025.34;2135504;83;21007;-85
2023/01/05 12:51:15;;;;;;;6.60;4.50;;;;;;;7.83;94.37;98014.09;2135785;83;21343;-84
2023/01/05 12:54:15;;;;;;;9.90;4.47;;;;;;;7.84;94.02;98018.44;2134521;83;20986;-84
2023/01/05 12:57:16;;;;;;;13.07;7.60;;;;;;;7.82;94.39;98016.68;2135027;83;20959;-85
2023/01/05 13:00:17;;;;;;;12.50;7.50;;;;;;;7.83;94.76;98019.30;2135206;83;21383;-83
2023/01/05 13:03:17;;;;;;;11.43;6.37;;;;;;;7.89;94.90;98028.88;2135378;83;21036;-84
2023/01/05 13:06:20;;;;;;;8.37;5.27;;;;;;;7.99;94.66;98018.58;2136144;83;20959;-85
2023/01/05 13:09:24;;;;;;;8.23;4.77;;;;;;;8.02;95.05;98009.94;2108337;83;20956;-84
2023/01/05 13:12:23;;;;;;;7.83;4.63;;;;;;;8.05;95.19;98000.86;2135599;83;21404;-85
2023/01/05 13:15:23;;;;;;;10.90;5.17;;;;;;;8.12;94.78;98002.66;2135270;83;21011;-82
2023/01/05 13:18:23;;;;;;;11.87;5.87;;;;;;;8.19;93.75;98004.45;2135247;83;20987;-84
2023/01/05 13:21:24;;;;;;;12.53;6.33;;;;;;;8.43;92.54;98002.91;2133900;83;21641;-84
2023/01/05 13:24:26;;;;;;;17.93;5.00;;;;;;;8.58;92.43;97986.11;2133459;83;20964;-81
2023/01/05 13:27:25;;;;;;;32.43;23.10;;;;;;;8.75;90.51;97997.52;2133394;83;21008;-83
2023/01/05 13:30:25;;;;;;;8.30;5.57;;;;;;;8.89;86.42;97993.25;2178676;81;20921;-84
2023/01/05 13:33:25;;;;;;;6.40;3.80;;;;;;;8.89;82.80;98001.05;2178237;82;20932;-83
2023/01/05 13:36:26;;;;;;;3.47;2.57;;;;;;;8.80;80.90;97995.80;2180101;82;20996;-83
2023/01/05 13:39:26;;;;;;;9.40;3.70;;;;;;;8.75;79.80;98003.15;2180697;82;21284;-84
2023/01/05 13:42:26;;;;;;;7.77;3.27;;;;;;;8.64;77.79;98001.75;2180743;82;20984;-85
2023/01/05 13:45:27;;;;;;;4.43;2.53;;;;;;;8.54;79.17;97983.92;2182218;81;21012;-84
2023/01/05 13:48:27;;;;;;;4.47;2.90;;;;;;;8.41;76.95;97999.00;2186482;81;20897;-84
2023/01/05 13:51:28;;;;;;;4.40;2.60;;;;;;;8.38;79.05;97996.81;2186139;81;20996;-81
2023/01/05 13:54:28;;;;;;;5.13;3.47;;;;;;;8.30;76.80;98005.39;2187435;81;21449;-83
2023/01/05 13:57:29;;;;;;;4.63;2.60;;;;;;;8.54;76.79;98026.84;2187934;81;20967;-84
2023/01/05 14:00:29;;;;;;;4.13;2.77;;;;;;;8.44;76.79;98020.26;2187895;81;21288;-81
2023/01/05 14:03:29;;;;;;;3.57;2.27;;;;;;;8.39;76.74;98025.42;2188406;81;21047;-83
2023/01/05 14:06:30;;;;;;;4.97;2.37;;;;;;;8.27;76.75;98038.30;2188256;81;20936;-83
2023/01/05 14:09:30;;;;;;;4.00;2.50;;;;;;;8.04;77.06;98029.02;2188038;81;21348;-82
2023/01/05 14:12:31;;;;;;;3.13;2.20;;;;;;;7.85;77.67;98042.27;2188146;81;20993;-83
2023/01/05 14:15:31;;;;;;;4.57;2.40;;;;;;;7.76;78.72;98023.08;2187916;81;20979;-82
2023/01/05 14:18:31;;;;;;;4.17;2.63;;;;;;;7.70;77.59;98037.31;2186500;81;21367;-82
2023/01/05 14:21:32;;;;;;;7.10;3.87;;;;;;;7.66;78.62;98049.39;2186429;81;20931;-83
2023/01/05 14:24:32;;;;;;;7.27;4.33;;;;;;;7.60;79.13;98050.63;2186829;81;20952;-82
2023/01/05 14:27:32;;;;;;;5.30;3.60;;;;;;;7.57;79.81;98057.09;2186000;81;21453;-81
2023/01/05 14:30:33;;;;;;;7.20;4.33;;;;;;;7.51;80.69;98050.09;2185583;81;21012;-82
2023/01/05 14:33:33;;;;;;;5.93;4.03;;;;;;;7.46;80.98;98072.55;2186140;81;21000;-81
2023/01/05 14:36:34;;;;;;;10.00;4.50;;;;;;;7.46;81.14;98061.29;2186793;81;21576;-83
2023/01/05 14:39:34;;;;;;;10.20;4.50;;;;;;;7.40;82.74;98069.01;2186679;81;21047;-81
2023/01/05 14:42:35;;;;;;;10.53;4.97;;;;;;;7.32;83.69;98071.52;2187416;81;20991;-84
2023/01/05 14:45:35;;;;;;;11.53;5.77;;;;;;;7.25;84.33;98076.19;2184710;81;21000;-82
2023/01/05 14:48:35;;;;;;;14.33;5.10;;;;;;;7.18;85.54;98102.48;2171773;81;20981;-84
2023/01/05 14:51:37;;;;;;;6.67;4.60;;;;;;;7.09;86.94;98096.30;2171318;82;21379;-83